Spangle, Washington
Current Conditions -  °F | °C
As of 11:53 PM on Saturday 22 Nov 2014 (Local Time) from KGEG Reporting Station
Few Clouds Few Clouds  
Wind Chill: 20°   Ceiling: Unl
Heat Index: 31°   Visibility: 10mi
Dew Point: 29°   Wind: 15mph
Humidity: 92%   Direction: 220°SW
Pressure: 29.99"   Gusts: NA
Location:  47.43°N, 117.38°W
Report Text: KGEG 230753Z 22013KT 10SM FEW003 M01/M02 A2999 RMK AO2 SLP171 T10061017 400611006
Loading
Personal Weather Stations






























Interactive Weather Map New forecast layout! Learn more

10-Day Weather Forecast

Advertisements
Track Severe Weather on mobile